createdAt,value
2018-02-08T00:00:24.000Z,26
2018-02-08T00:01:24.000Z,26
2018-02-08T00:02:24.000Z,26
2018-02-08T00:03:24.000Z,26
2018-02-08T00:04:24.000Z,26
2018-02-08T00:05:24.000Z,26
2018-02-08T00:06:24.000Z,26
2018-02-08T00:07:24.000Z,26
2018-02-08T00:08:24.000Z,26
2018-02-08T00:09:24.000Z,26
2018-02-08T00:10:24.000Z,26
2018-02-08T00:11:24.000Z,26
2018-02-08T00:12:24.000Z,26
2018-02-08T00:13:24.000Z,26
2018-02-08T00:14:24.000Z,26
2018-02-08T00:15:24.000Z,26
2018-02-08T00:16:24.000Z,26
2018-02-08T00:17:24.000Z,26
2018-02-08T00:18:24.000Z,26
2018-02-08T00:19:24.000Z,26
2018-02-08T00:20:24.000Z,26
2018-02-08T00:21:24.000Z,26
2018-02-08T00:22:24.000Z,26
2018-02-08T00:23:24.000Z,26
2018-02-08T00:24:24.000Z,26
2018-02-08T00:25:24.000Z,26
2018-02-08T00:26:24.000Z,26
2018-02-08T00:27:24.000Z,26
2018-02-08T00:28:24.000Z,26
2018-02-08T00:29:24.000Z,26
2018-02-08T00:30:24.000Z,26
2018-02-08T00:31:24.000Z,26
2018-02-08T00:32:24.000Z,26
2018-02-08T00:33:24.000Z,26
2018-02-08T00:34:24.000Z,26
2018-02-08T00:35:24.000Z,26
2018-02-08T00:37:24.000Z,26
2018-02-08T00:38:24.000Z,26
2018-02-08T00:39:24.000Z,26
2018-02-08T00:40:24.000Z,26
2018-02-08T00:41:24.000Z,26
2018-02-08T00:42:24.000Z,26
2018-02-08T00:43:24.000Z,26
2018-02-08T00:44:24.000Z,26
2018-02-08T00:45:24.000Z,26
2018-02-08T00:46:24.000Z,26
2018-02-08T00:47:24.000Z,26
2018-02-08T00:48:24.000Z,26
2018-02-08T00:49:24.000Z,26
2018-02-08T00:50:24.000Z,26
2018-02-08T00:51:24.000Z,26
2018-02-08T00:52:24.000Z,26
2018-02-08T00:53:24.000Z,26
2018-02-08T00:54:24.000Z,26
2018-02-08T00:55:24.000Z,26
2018-02-08T00:56:24.000Z,26
2018-02-08T00:57:24.000Z,26
2018-02-08T00:58:24.000Z,26
2018-02-08T00:59:24.000Z,26
2018-02-08T01:00:24.000Z,26
2018-02-08T01:01:24.000Z,26
2018-02-08T01:02:24.000Z,26
2018-02-08T01:03:24.000Z,26
2018-02-08T01:04:24.000Z,26
2018-02-08T01:05:24.000Z,26
2018-02-08T01:06:24.000Z,26
2018-02-08T01:07:24.000Z,26
2018-02-08T01:09:24.000Z,26
2018-02-08T01:10:23.000Z,26
2018-02-08T01:11:23.000Z,26
2018-02-08T01:12:23.000Z,26
2018-02-08T01:13:23.000Z,26
2018-02-08T01:14:23.000Z,26
2018-02-08T01:15:23.000Z,26
2018-02-08T01:16:23.000Z,26
2018-02-08T01:17:23.000Z,26
2018-02-08T01:18:23.000Z,26
2018-02-08T01:19:23.000Z,26
2018-02-08T01:20:23.000Z,26
2018-02-08T01:21:23.000Z,26
2018-02-08T01:22:23.000Z,26
2018-02-08T01:23:23.000Z,26
2018-02-08T01:24:23.000Z,26
2018-02-08T01:25:23.000Z,26
2018-02-08T01:26:23.000Z,26
2018-02-08T01:27:23.000Z,26
2018-02-08T01:28:23.000Z,26
2018-02-08T01:29:23.000Z,26
2018-02-08T01:30:23.000Z,26
2018-02-08T01:31:23.000Z,26
2018-02-08T01:32:23.000Z,26
2018-02-08T01:34:23.000Z,26
2018-02-08T01:36:23.000Z,26
2018-02-08T01:37:23.000Z,26
2018-02-08T01:38:23.000Z,26
2018-02-08T01:39:23.000Z,26
2018-02-08T01:40:23.000Z,26
2018-02-08T01:41:23.000Z,26
2018-02-08T01:42:23.000Z,26
2018-02-08T01:43:23.000Z,26
2018-02-08T01:44:23.000Z,26
2018-02-08T01:45:23.000Z,26
2018-02-08T01:46:23.000Z,26
2018-02-08T01:47:23.000Z,26
2018-02-08T01:49:23.000Z,26
2018-02-08T01:50:23.000Z,26
2018-02-08T01:51:23.000Z,26
2018-02-08T01:52:23.000Z,26
2018-02-08T01:53:23.000Z,26
2018-02-08T01:54:23.000Z,26
2018-02-08T01:55:23.000Z,26
2018-02-08T01:57:23.000Z,26
2018-02-08T01:59:23.000Z,26
2018-02-08T02:00:23.000Z,26
2018-02-08T02:01:23.000Z,26
2018-02-08T02:02:23.000Z,26
2018-02-08T02:03:23.000Z,26
2018-02-08T02:04:23.000Z,26
2018-02-08T02:05:23.000Z,26
2018-02-08T02:06:23.000Z,26
2018-02-08T02:07:23.000Z,26
2018-02-08T02:08:23.000Z,26
2018-02-08T02:09:23.000Z,26
2018-02-08T02:10:23.000Z,26
2018-02-08T02:11:23.000Z,26
2018-02-08T02:12:23.000Z,26
2018-02-08T02:13:24.000Z,26
2018-02-08T02:15:24.000Z,26
2018-02-08T02:16:24.000Z,26
2018-02-08T02:18:24.000Z,26
2018-02-08T02:19:24.000Z,26
2018-02-08T02:20:24.000Z,26
2018-02-08T02:21:24.000Z,26
2018-02-08T02:22:24.000Z,26
2018-02-08T02:23:24.000Z,26
2018-02-08T02:24:24.000Z,26
2018-02-08T02:25:24.000Z,26
2018-02-08T02:26:24.000Z,26
2018-02-08T02:28:24.000Z,26
2018-02-08T02:29:24.000Z,26
2018-02-08T02:30:24.000Z,26
2018-02-08T02:32:24.000Z,26
2018-02-08T02:33:24.000Z,26
2018-02-08T02:34:24.000Z,26
2018-02-08T02:35:24.000Z,26
2018-02-08T02:36:24.000Z,26
2018-02-08T02:37:24.000Z,26
2018-02-08T02:38:24.000Z,26
2018-02-08T02:39:24.000Z,26
2018-02-08T02:41:24.000Z,26
2018-02-08T02:42:24.000Z,26
2018-02-08T02:43:24.000Z,26
2018-02-08T02:44:24.000Z,26
2018-02-08T02:45:24.000Z,26
2018-02-08T02:46:24.000Z,26
2018-02-08T02:47:24.000Z,26
2018-02-08T02:49:24.000Z,26
2018-02-08T02:51:24.000Z,26
2018-02-08T02:52:24.000Z,26
2018-02-08T02:53:24.000Z,26
2018-02-08T02:54:24.000Z,26
2018-02-08T02:55:24.000Z,26
2018-02-08T02:56:24.000Z,26
2018-02-08T02:57:24.000Z,26
2018-02-08T02:58:24.000Z,26
2018-02-08T03:00:24.000Z,26
2018-02-08T03:01:24.000Z,26
2018-02-08T03:02:24.000Z,26
2018-02-08T03:03:24.000Z,26
2018-02-08T03:04:24.000Z,26
2018-02-08T03:05:24.000Z,26
2018-02-08T03:06:24.000Z,26
2018-02-08T03:07:24.000Z,26
2018-02-08T03:08:24.000Z,26
2018-02-08T03:09:24.000Z,26
2018-02-08T03:10:24.000Z,26
2018-02-08T03:11:24.000Z,26
2018-02-08T03:12:24.000Z,26
2018-02-08T03:13:24.000Z,26
2018-02-08T03:14:24.000Z,26
2018-02-08T03:16:24.000Z,26
2018-02-08T03:17:24.000Z,26
2018-02-08T03:19:24.000Z,26
2018-02-08T03:21:24.000Z,26
2018-02-08T03:23:24.000Z,26
2018-02-08T03:24:24.000Z,26
2018-02-08T03:25:24.000Z,26
2018-02-08T03:26:24.000Z,26
2018-02-08T03:27:24.000Z,26
2018-02-08T03:28:24.000Z,26
2018-02-08T03:29:24.000Z,26
2018-02-08T03:30:24.000Z,26
2018-02-08T03:31:24.000Z,26
2018-02-08T03:32:24.000Z,26
2018-02-08T03:33:24.000Z,26
2018-02-08T03:35:24.000Z,26
2018-02-08T03:36:24.000Z,26
2018-02-08T03:37:24.000Z,26
2018-02-08T03:38:24.000Z,26
2018-02-08T03:39:24.000Z,26
2018-02-08T03:40:24.000Z,26
2018-02-08T03:41:24.000Z,26
2018-02-08T03:42:24.000Z,26
2018-02-08T03:43:24.000Z,26
2018-02-08T03:44:24.000Z,26
2018-02-08T03:45:24.000Z,26
2018-02-08T03:46:24.000Z,26
2018-02-08T03:47:24.000Z,26
2018-02-08T03:48:24.000Z,26
2018-02-08T03:49:24.000Z,26
2018-02-08T03:51:24.000Z,26
2018-02-08T03:52:24.000Z,26
2018-02-08T03:53:24.000Z,26
2018-02-08T03:54:24.000Z,26
2018-02-08T03:56:24.000Z,26
2018-02-08T03:57:24.000Z,26
2018-02-08T03:58:24.000Z,26
2018-02-08T04:00:24.000Z,26
2018-02-08T04:01:24.000Z,26
2018-02-08T04:02:24.000Z,26
2018-02-08T04:04:24.000Z,26
2018-02-08T04:05:24.000Z,26
2018-02-08T04:06:24.000Z,26
2018-02-08T04:07:24.000Z,26
2018-02-08T04:08:24.000Z,26
2018-02-08T04:09:24.000Z,26
2018-02-08T04:10:24.000Z,26
2018-02-08T04:11:24.000Z,26
2018-02-08T04:12:24.000Z,26
2018-02-08T04:13:24.000Z,26
2018-02-08T04:14:24.000Z,26
2018-02-08T04:15:24.000Z,26
2018-02-08T04:16:24.000Z,26
2018-02-08T04:17:24.000Z,26
2018-02-08T04:18:24.000Z,26
2018-02-08T04:20:24.000Z,26
2018-02-08T04:21:24.000Z,26
2018-02-08T04:22:24.000Z,26
2018-02-08T04:24:24.000Z,26
2018-02-08T04:25:24.000Z,26
2018-02-08T04:26:24.000Z,26
2018-02-08T04:27:24.000Z,26
2018-02-08T04:28:24.000Z,26
2018-02-08T04:29:24.000Z,26
2018-02-08T04:31:24.000Z,26
2018-02-08T04:32:24.000Z,26
2018-02-08T04:33:24.000Z,26
2018-02-08T04:34:24.000Z,26
2018-02-08T04:35:24.000Z,26
2018-02-08T04:37:24.000Z,26
2018-02-08T04:38:24.000Z,26
2018-02-08T04:39:24.000Z,26
2018-02-08T04:41:24.000Z,26
2018-02-08T04:42:24.000Z,26
2018-02-08T04:43:24.000Z,26
2018-02-08T04:44:24.000Z,26
2018-02-08T04:45:24.000Z,26
2018-02-08T04:46:24.000Z,26
2018-02-08T04:47:24.000Z,26
2018-02-08T04:48:24.000Z,26
2018-02-08T04:49:24.000Z,26
2018-02-08T04:50:24.000Z,26
2018-02-08T04:51:24.000Z,26
2018-02-08T04:52:24.000Z,26
2018-02-08T04:53:24.000Z,26
2018-02-08T04:54:24.000Z,26
2018-02-08T04:55:24.000Z,26
2018-02-08T04:56:24.000Z,26
2018-02-08T04:57:24.000Z,26
2018-02-08T04:58:24.000Z,26
2018-02-08T04:59:24.000Z,26
2018-02-08T05:00:24.000Z,26
2018-02-08T05:01:24.000Z,26
2018-02-08T05:02:24.000Z,26
2018-02-08T05:03:24.000Z,26
2018-02-08T05:05:24.000Z,26
2018-02-08T05:07:24.000Z,26
2018-02-08T05:08:24.000Z,26
2018-02-08T05:09:24.000Z,26
2018-02-08T05:10:24.000Z,26
2018-02-08T05:11:24.000Z,26
2018-02-08T05:12:24.000Z,26
2018-02-08T05:13:24.000Z,26
2018-02-08T05:14:24.000Z,26
2018-02-08T05:15:24.000Z,26
2018-02-08T05:16:24.000Z,26
2018-02-08T05:17:24.000Z,26
2018-02-08T05:18:24.000Z,26
2018-02-08T05:19:24.000Z,26
2018-02-08T05:21:24.000Z,26
2018-02-08T05:22:24.000Z,26
2018-02-08T05:24:23.000Z,26
2018-02-08T05:26:23.000Z,26
2018-02-08T05:27:23.000Z,26
2018-02-08T05:28:23.000Z,26
2018-02-08T05:29:23.000Z,26
2018-02-08T05:30:23.000Z,26
2018-02-08T05:31:23.000Z,26
2018-02-08T05:32:23.000Z,26
2018-02-08T05:33:23.000Z,26
2018-02-08T05:34:23.000Z,26
2018-02-08T05:35:23.000Z,26
2018-02-08T05:37:23.000Z,26
2018-02-08T05:38:23.000Z,26
2018-02-08T05:39:23.000Z,26
2018-02-08T05:41:23.000Z,26
2018-02-08T05:42:23.000Z,26
2018-02-08T05:43:23.000Z,27
2018-02-08T05:44:23.000Z,26
2018-02-08T05:45:23.000Z,27
2018-02-08T05:46:23.000Z,27
2018-02-08T05:47:23.000Z,27
2018-02-08T05:48:23.000Z,27
2018-02-08T05:49:23.000Z,27
2018-02-08T05:50:23.000Z,27
2018-02-08T05:51:23.000Z,27
2018-02-08T05:53:23.000Z,27
2018-02-08T05:54:23.000Z,27
2018-02-08T05:55:23.000Z,27
2018-02-08T05:56:23.000Z,27
2018-02-08T05:57:23.000Z,27
2018-02-08T05:58:23.000Z,27
2018-02-08T05:59:23.000Z,27
2018-02-08T06:00:23.000Z,27
2018-02-08T06:01:23.000Z,27
2018-02-08T06:02:23.000Z,27
2018-02-08T06:03:23.000Z,27
2018-02-08T06:04:23.000Z,27
2018-02-08T06:05:23.000Z,27
2018-02-08T06:06:23.000Z,27
2018-02-08T06:07:23.000Z,27
2018-02-08T06:08:23.000Z,27
2018-02-08T06:09:23.000Z,27
2018-02-08T06:10:23.000Z,28
2018-02-08T06:11:23.000Z,28
2018-02-08T06:12:23.000Z,28
2018-02-08T06:13:23.000Z,28
2018-02-08T06:15:23.000Z,28
2018-02-08T06:16:23.000Z,28
2018-02-08T06:18:23.000Z,28
2018-02-08T06:20:23.000Z,28
2018-02-08T06:21:23.000Z,28
2018-02-08T06:22:23.000Z,28
2018-02-08T06:24:23.000Z,28
2018-02-08T06:25:23.000Z,28
2018-02-08T06:26:23.000Z,28
2018-02-08T06:28:24.000Z,28
2018-02-08T06:29:24.000Z,28
2018-02-08T06:30:24.000Z,28
2018-02-08T06:31:24.000Z,28
2018-02-08T06:32:24.000Z,28
2018-02-08T06:33:24.000Z,28
2018-02-08T06:35:24.000Z,28
2018-02-08T06:36:24.000Z,28
2018-02-08T06:38:24.000Z,28
2018-02-08T06:39:24.000Z,28
2018-02-08T06:41:24.000Z,28
2018-02-08T06:43:24.000Z,28
2018-02-08T06:44:24.000Z,28
2018-02-08T06:45:24.000Z,29
2018-02-08T06:46:24.000Z,29
2018-02-08T06:47:24.000Z,28
2018-02-08T06:48:24.000Z,28
2018-02-08T06:50:24.000Z,28
2018-02-08T06:51:24.000Z,28
2018-02-08T06:52:24.000Z,28
2018-02-08T06:54:24.000Z,28
2018-02-08T06:55:24.000Z,28
2018-02-08T06:56:24.000Z,28
2018-02-08T06:57:24.000Z,28
2018-02-08T06:58:24.000Z,28
2018-02-08T07:00:24.000Z,28
2018-02-08T07:01:24.000Z,28
2018-02-08T07:02:24.000Z,28
2018-02-08T07:03:24.000Z,28
2018-02-08T07:04:24.000Z,28
2018-02-08T07:05:24.000Z,28
2018-02-08T07:07:24.000Z,28
2018-02-08T07:08:24.000Z,27
2018-02-08T07:09:24.000Z,27
2018-02-08T07:10:24.000Z,27
2018-02-08T07:11:24.000Z,27
2018-02-08T07:12:24.000Z,27
2018-02-08T07:13:24.000Z,27
2018-02-08T07:14:24.000Z,27
2018-02-08T07:15:24.000Z,27
2018-02-08T07:16:24.000Z,27
2018-02-08T07:17:24.000Z,27
2018-02-08T07:18:24.000Z,27
2018-02-08T07:19:24.000Z,27
2018-02-08T07:20:24.000Z,27
2018-02-08T07:22:24.000Z,26
2018-02-08T07:23:24.000Z,26
2018-02-08T07:25:24.000Z,26
2018-02-08T07:26:24.000Z,26
2018-02-08T07:27:24.000Z,26
2018-02-08T07:28:24.000Z,26
2018-02-08T07:29:24.000Z,26
2018-02-08T07:30:24.000Z,26
2018-02-08T07:31:24.000Z,26
2018-02-08T07:32:24.000Z,26
2018-02-08T07:33:24.000Z,26
2018-02-08T07:34:24.000Z,25
2018-02-08T07:35:24.000Z,25
2018-02-08T07:36:24.000Z,25
2018-02-08T07:37:24.000Z,25
2018-02-08T07:38:24.000Z,25
2018-02-08T07:39:24.000Z,25
2018-02-08T07:40:24.000Z,25
2018-02-08T07:41:24.000Z,25
2018-02-08T07:42:24.000Z,25
2018-02-08T07:43:24.000Z,25
2018-02-08T07:44:24.000Z,25
2018-02-08T07:45:24.000Z,25
2018-02-08T07:46:24.000Z,25
2018-02-08T07:47:24.000Z,25
2018-02-08T07:48:24.000Z,25
2018-02-08T07:49:24.000Z,25
2018-02-08T07:50:24.000Z,25
2018-02-08T07:51:24.000Z,25
2018-02-08T07:52:24.000Z,25
2018-02-08T07:53:24.000Z,25
2018-02-08T07:55:24.000Z,24
2018-02-08T07:56:24.000Z,24
2018-02-08T07:57:24.000Z,24
2018-02-08T07:58:24.000Z,24
2018-02-08T07:59:24.000Z,24
2018-02-08T08:00:24.000Z,24
2018-02-08T08:01:24.000Z,24
2018-02-08T08:02:24.000Z,24
2018-02-08T08:03:24.000Z,24
2018-02-08T08:04:24.000Z,24
2018-02-08T08:05:24.000Z,24
2018-02-08T08:06:24.000Z,24
2018-02-08T08:07:24.000Z,24
2018-02-08T08:08:24.000Z,24
2018-02-08T08:10:24.000Z,24
2018-02-08T08:11:24.000Z,24
2018-02-08T08:12:24.000Z,24
2018-02-08T08:14:24.000Z,24
2018-02-08T08:15:24.000Z,24
2018-02-08T08:16:24.000Z,24
2018-02-08T08:17:24.000Z,24
2018-02-08T08:18:24.000Z,24
2018-02-08T08:19:24.000Z,24
2018-02-08T08:20:24.000Z,24
2018-02-08T08:21:24.000Z,24
2018-02-08T08:22:24.000Z,24
2018-02-08T08:23:24.000Z,24
2018-02-08T08:25:24.000Z,24
2018-02-08T08:26:24.000Z,24
2018-02-08T08:27:24.000Z,24
2018-02-08T08:28:24.000Z,24
2018-02-08T08:30:24.000Z,24
2018-02-08T08:31:24.000Z,24
2018-02-08T08:32:24.000Z,24
2018-02-08T08:33:24.000Z,24
2018-02-08T08:34:24.000Z,24
2018-02-08T08:35:24.000Z,24
2018-02-08T08:36:23.000Z,24
2018-02-08T08:37:23.000Z,24
2018-02-08T08:39:23.000Z,24
2018-02-08T08:40:23.000Z,24
2018-02-08T08:41:23.000Z,24
2018-02-08T08:42:23.000Z,24
2018-02-08T08:43:23.000Z,24
2018-02-08T08:45:23.000Z,24
2018-02-08T08:46:23.000Z,24
2018-02-08T08:47:23.000Z,24
2018-02-08T08:48:23.000Z,24
2018-02-08T08:49:23.000Z,24
2018-02-08T08:50:23.000Z,24
2018-02-08T08:51:23.000Z,24
2018-02-08T08:52:23.000Z,24
2018-02-08T08:53:23.000Z,24
2018-02-08T08:54:23.000Z,24
2018-02-08T08:55:23.000Z,24
2018-02-08T08:56:23.000Z,24
2018-02-08T08:58:23.000Z,24
2018-02-08T08:59:23.000Z,24
2018-02-08T09:00:23.000Z,24
2018-02-08T09:01:23.000Z,24
2018-02-08T09:02:23.000Z,24
2018-02-08T09:03:23.000Z,24
2018-02-08T09:04:23.000Z,24
2018-02-08T09:05:23.000Z,24
2018-02-08T09:06:23.000Z,24
2018-02-08T09:07:23.000Z,24
2018-02-08T09:08:23.000Z,23
2018-02-08T09:09:23.000Z,23
2018-02-08T09:10:23.000Z,23
2018-02-08T09:12:23.000Z,23
2018-02-08T09:13:23.000Z,23
2018-02-08T09:14:23.000Z,23
2018-02-08T09:15:23.000Z,23
2018-02-08T09:16:23.000Z,24
2018-02-08T09:17:23.000Z,23
2018-02-08T09:18:23.000Z,23
2018-02-08T09:19:23.000Z,24
2018-02-08T09:20:23.000Z,24
2018-02-08T09:21:23.000Z,24
2018-02-08T09:22:23.000Z,24
2018-02-08T09:23:23.000Z,24
2018-02-08T09:24:23.000Z,24
2018-02-08T09:25:23.000Z,24
2018-02-08T09:26:23.000Z,24
2018-02-08T09:27:23.000Z,24
2018-02-08T09:28:23.000Z,24
2018-02-08T09:29:23.000Z,24
2018-02-08T09:30:23.000Z,24
2018-02-08T09:31:23.000Z,24
2018-02-08T09:32:23.000Z,24
2018-02-08T09:33:23.000Z,24
2018-02-08T09:34:23.000Z,24
2018-02-08T09:35:23.000Z,24
2018-02-08T09:37:23.000Z,24
2018-02-08T09:38:23.000Z,24
2018-02-08T09:39:23.000Z,24
2018-02-08T09:41:23.000Z,24
2018-02-08T09:42:23.000Z,24
2018-02-08T09:43:23.000Z,24
2018-02-08T09:44:23.000Z,24
2018-02-08T09:46:23.000Z,24
2018-02-08T09:47:23.000Z,24
2018-02-08T09:48:23.000Z,25
2018-02-08T09:49:23.000Z,24
2018-02-08T09:50:23.000Z,25
2018-02-08T09:51:23.000Z,25
2018-02-08T09:53:23.000Z,25
2018-02-08T09:54:23.000Z,25
2018-02-08T09:55:23.000Z,25
2018-02-08T09:56:23.000Z,25
2018-02-08T09:57:23.000Z,25
2018-02-08T09:59:23.000Z,25
2018-02-08T10:00:23.000Z,25
2018-02-08T10:01:23.000Z,25
2018-02-08T10:02:23.000Z,25
2018-02-08T10:03:23.000Z,25
2018-02-08T10:05:23.000Z,25
2018-02-08T10:06:23.000Z,25
2018-02-08T10:07:23.000Z,25
2018-02-08T10:08:23.000Z,25
2018-02-08T10:09:23.000Z,25
2018-02-08T10:10:23.000Z,25
2018-02-08T10:11:23.000Z,25
2018-02-08T10:12:23.000Z,25
2018-02-08T10:13:23.000Z,25
2018-02-08T10:14:23.000Z,25
2018-02-08T10:15:23.000Z,25
2018-02-08T10:16:23.000Z,25
2018-02-08T10:17:23.000Z,25
2018-02-08T10:18:23.000Z,25
2018-02-08T10:19:23.000Z,25
2018-02-08T10:20:23.000Z,25
2018-02-08T10:21:23.000Z,25
2018-02-08T10:22:23.000Z,26
2018-02-08T10:24:23.000Z,25
2018-02-08T10:25:23.000Z,26
2018-02-08T10:27:23.000Z,25
2018-02-08T10:28:23.000Z,26
2018-02-08T10:29:23.000Z,25
2018-02-08T10:30:23.000Z,26
2018-02-08T10:31:23.000Z,26
2018-02-08T10:32:23.000Z,26
2018-02-08T10:33:23.000Z,26
2018-02-08T10:34:23.000Z,26
2018-02-08T10:35:23.000Z,26
2018-02-08T10:36:23.000Z,26
2018-02-08T10:37:23.000Z,26
2018-02-08T10:38:23.000Z,26
2018-02-08T10:39:23.000Z,26
2018-02-08T10:40:23.000Z,26
2018-02-08T10:41:23.000Z,26
2018-02-08T10:42:23.000Z,26
2018-02-08T10:43:24.000Z,26
2018-02-08T10:44:24.000Z,26
2018-02-08T10:45:24.000Z,26
2018-02-08T10:46:24.000Z,26
2018-02-08T10:47:24.000Z,25
2018-02-08T10:48:24.000Z,25
2018-02-08T10:49:24.000Z,26
2018-02-08T10:50:24.000Z,25
2018-02-08T10:51:24.000Z,25
2018-02-08T10:53:24.000Z,25
2018-02-08T10:54:24.000Z,25
2018-02-08T10:55:24.000Z,25
2018-02-08T10:56:24.000Z,25
2018-02-08T10:58:24.000Z,25
2018-02-08T10:59:24.000Z,25
2018-02-08T11:00:24.000Z,25
2018-02-08T11:01:24.000Z,25
2018-02-08T11:02:24.000Z,25
2018-02-08T11:03:24.000Z,25
2018-02-08T11:04:24.000Z,25
2018-02-08T11:05:24.000Z,25
2018-02-08T11:06:24.000Z,25
2018-02-08T11:07:24.000Z,25
2018-02-08T11:09:24.000Z,24
2018-02-08T11:10:24.000Z,24
2018-02-08T11:11:24.000Z,24
2018-02-08T11:13:24.000Z,24
2018-02-08T11:14:24.000Z,24
2018-02-08T11:15:24.000Z,24
2018-02-08T11:16:24.000Z,24
2018-02-08T11:17:24.000Z,24
2018-02-08T11:18:24.000Z,24
2018-02-08T11:19:24.000Z,24
2018-02-08T11:20:24.000Z,24
2018-02-08T11:21:24.000Z,24
2018-02-08T11:22:24.000Z,24
2018-02-08T11:23:24.000Z,24
2018-02-08T11:24:24.000Z,24
2018-02-08T11:25:24.000Z,24
2018-02-08T11:26:24.000Z,24
2018-02-08T11:27:24.000Z,24
2018-02-08T11:28:24.000Z,24
2018-02-08T11:29:24.000Z,24
2018-02-08T11:30:24.000Z,24
2018-02-08T11:32:24.000Z,24
2018-02-08T11:33:24.000Z,24
2018-02-08T11:35:24.000Z,24
2018-02-08T11:36:24.000Z,24
2018-02-08T11:37:24.000Z,24
2018-02-08T11:38:24.000Z,24
2018-02-08T11:39:24.000Z,24
2018-02-08T11:40:24.000Z,24
2018-02-08T11:41:24.000Z,24
2018-02-08T11:42:24.000Z,24
2018-02-08T11:43:24.000Z,24
2018-02-08T11:44:24.000Z,24
2018-02-08T11:45:24.000Z,24
2018-02-08T11:46:24.000Z,24
2018-02-08T11:47:24.000Z,24
2018-02-08T11:48:24.000Z,24
2018-02-08T11:49:24.000Z,24
2018-02-08T11:50:24.000Z,24
2018-02-08T11:52:24.000Z,24
2018-02-08T11:53:24.000Z,24
2018-02-08T11:55:24.000Z,24
2018-02-08T11:56:24.000Z,24
2018-02-08T11:57:24.000Z,24
2018-02-08T11:58:24.000Z,24
2018-02-08T11:59:24.000Z,24
2018-02-08T12:01:24.000Z,24
2018-02-08T12:03:24.000Z,24
2018-02-08T12:05:24.000Z,24
2018-02-08T12:06:24.000Z,24
2018-02-08T12:07:24.000Z,24
2018-02-08T12:08:24.000Z,24
2018-02-08T12:09:24.000Z,24
2018-02-08T12:10:24.000Z,24
2018-02-08T12:11:24.000Z,24
2018-02-08T12:12:24.000Z,24
2018-02-08T12:13:24.000Z,24
2018-02-08T12:14:24.000Z,24
2018-02-08T12:15:24.000Z,24
2018-02-08T12:17:24.000Z,24
2018-02-08T12:18:24.000Z,24
2018-02-08T12:19:24.000Z,24
2018-02-08T12:20:24.000Z,24
2018-02-08T12:21:24.000Z,24
2018-02-08T12:22:24.000Z,24
2018-02-08T12:23:24.000Z,24
2018-02-08T12:24:24.000Z,24
2018-02-08T12:25:24.000Z,24
2018-02-08T12:26:24.000Z,24
2018-02-08T12:27:24.000Z,24
2018-02-08T12:28:24.000Z,24
2018-02-08T12:29:24.000Z,24
2018-02-08T12:30:24.000Z,24
2018-02-08T12:31:24.000Z,24
2018-02-08T12:32:24.000Z,24
2018-02-08T12:34:24.000Z,24
2018-02-08T12:35:24.000Z,24
2018-02-08T12:36:24.000Z,23
2018-02-08T12:37:24.000Z,23
2018-02-08T12:38:24.000Z,22
2018-02-08T12:39:24.000Z,22
2018-02-08T12:40:24.000Z,22
2018-02-08T12:41:24.000Z,21
2018-02-08T12:42:24.000Z,21
2018-02-08T12:43:24.000Z,21
2018-02-08T12:44:24.000Z,21
2018-02-08T12:45:24.000Z,21
2018-02-08T12:46:24.000Z,21
2018-02-08T12:47:24.000Z,21
2018-02-08T12:49:24.000Z,21
2018-02-08T12:50:24.000Z,21
2018-02-08T12:51:24.000Z,21
2018-02-08T12:52:24.000Z,21
2018-02-08T12:53:24.000Z,21
2018-02-08T12:54:24.000Z,21
2018-02-08T12:55:24.000Z,21
2018-02-08T12:56:24.000Z,21
2018-02-08T12:57:24.000Z,20
2018-02-08T12:59:24.000Z,20
2018-02-08T13:00:24.000Z,20
2018-02-08T13:01:24.000Z,20
2018-02-08T13:02:24.000Z,20
2018-02-08T13:03:24.000Z,20
2018-02-08T13:05:24.000Z,20
2018-02-08T13:06:24.000Z,20
2018-02-08T13:07:24.000Z,20
2018-02-08T13:08:24.000Z,20
2018-02-08T13:09:24.000Z,20
2018-02-08T13:10:24.000Z,20
2018-02-08T13:11:24.000Z,20
2018-02-08T13:12:24.000Z,20
2018-02-08T13:13:24.000Z,20
2018-02-08T13:14:24.000Z,20
2018-02-08T13:15:24.000Z,20
2018-02-08T13:16:24.000Z,20
2018-02-08T13:17:24.000Z,20
2018-02-08T13:18:24.000Z,20
2018-02-08T13:19:24.000Z,20
2018-02-08T13:21:24.000Z,20
2018-02-08T13:22:24.000Z,21
2018-02-08T13:24:24.000Z,21
2018-02-08T13:25:24.000Z,21
2018-02-08T13:26:24.000Z,21
2018-02-08T13:27:24.000Z,21
2018-02-08T13:28:24.000Z,21
2018-02-08T13:29:24.000Z,21
2018-02-08T13:31:24.000Z,21
2018-02-08T13:32:24.000Z,21
2018-02-08T13:33:24.000Z,21
2018-02-08T13:34:24.000Z,21
2018-02-08T13:36:24.000Z,21
2018-02-08T13:37:24.000Z,21
2018-02-08T13:38:24.000Z,21
2018-02-08T13:39:24.000Z,21
2018-02-08T13:40:24.000Z,21
2018-02-08T13:41:24.000Z,21
2018-02-08T13:42:24.000Z,21
2018-02-08T13:43:24.000Z,21
2018-02-08T13:44:24.000Z,22
2018-02-08T13:45:24.000Z,22
2018-02-08T13:46:24.000Z,22
2018-02-08T13:47:24.000Z,22
2018-02-08T13:48:24.000Z,22
2018-02-08T13:50:24.000Z,22
2018-02-08T13:51:24.000Z,22
2018-02-08T13:52:24.000Z,22
2018-02-08T13:53:24.000Z,22
2018-02-08T13:55:24.000Z,22
2018-02-08T13:56:24.000Z,22
2018-02-08T13:57:24.000Z,22
2018-02-08T13:58:24.000Z,22
2018-02-08T13:59:24.000Z,22
2018-02-08T14:00:24.000Z,22
2018-02-08T14:01:24.000Z,22
2018-02-08T14:02:24.000Z,22
2018-02-08T14:03:24.000Z,22
2018-02-08T14:04:24.000Z,22
2018-02-08T14:05:24.000Z,22
2018-02-08T14:06:24.000Z,22
2018-02-08T14:07:24.000Z,22
2018-02-08T14:08:24.000Z,22
2018-02-08T14:09:24.000Z,22
2018-02-08T14:10:24.000Z,22
2018-02-08T14:11:24.000Z,22
2018-02-08T14:12:24.000Z,22
2018-02-08T14:13:24.000Z,22
2018-02-08T14:14:24.000Z,22
2018-02-08T14:15:24.000Z,22
2018-02-08T14:16:24.000Z,22
2018-02-08T14:17:24.000Z,22
2018-02-08T14:18:24.000Z,22
2018-02-08T14:19:24.000Z,22
2018-02-08T14:20:24.000Z,22
2018-02-08T14:22:24.000Z,22
2018-02-08T14:24:24.000Z,22
2018-02-08T14:25:24.000Z,22
2018-02-08T14:26:24.000Z,22
2018-02-08T14:28:24.000Z,22
2018-02-08T14:29:24.000Z,22
2018-02-08T14:31:24.000Z,22
2018-02-08T14:32:24.000Z,22
2018-02-08T14:33:24.000Z,22
2018-02-08T14:34:24.000Z,22
2018-02-08T14:36:24.000Z,22
2018-02-08T14:37:24.000Z,21
2018-02-08T14:38:24.000Z,21
2018-02-08T14:39:24.000Z,21
2018-02-08T14:41:24.000Z,21
2018-02-08T14:43:24.000Z,21
2018-02-08T14:44:24.000Z,21
2018-02-08T14:45:24.000Z,21
2018-02-08T14:47:24.000Z,21
2018-02-08T14:49:24.000Z,22
2018-02-08T14:50:24.000Z,22
2018-02-08T14:51:24.000Z,22
2018-02-08T14:52:24.000Z,22
2018-02-08T14:53:24.000Z,22
2018-02-08T14:55:24.000Z,22
2018-02-08T14:56:24.000Z,22
2018-02-08T14:57:24.000Z,22
2018-02-08T14:58:24.000Z,23
2018-02-08T14:59:24.000Z,23
2018-02-08T15:00:24.000Z,23
2018-02-08T15:01:24.000Z,23
2018-02-08T15:03:24.000Z,23
2018-02-08T15:04:24.000Z,23
2018-02-08T15:05:24.000Z,23
2018-02-08T15:06:24.000Z,23
2018-02-08T15:08:24.000Z,22
2018-02-08T15:09:24.000Z,22
2018-02-08T15:11:24.000Z,22
2018-02-08T15:12:24.000Z,22
2018-02-08T15:13:24.000Z,22
2018-02-08T15:14:24.000Z,22
2018-02-08T15:16:24.000Z,22
2018-02-08T15:17:24.000Z,22
2018-02-08T15:18:24.000Z,22
2018-02-08T15:19:24.000Z,22
2018-02-08T15:20:24.000Z,22
2018-02-08T15:21:24.000Z,22
2018-02-08T15:22:24.000Z,22
2018-02-08T15:23:24.000Z,22
2018-02-08T15:24:24.000Z,22
2018-02-08T15:25:24.000Z,22
2018-02-08T15:26:24.000Z,22
2018-02-08T15:27:24.000Z,22
2018-02-08T15:28:24.000Z,22
2018-02-08T15:29:24.000Z,22
2018-02-08T15:30:24.000Z,22
2018-02-08T15:31:24.000Z,22
2018-02-08T15:33:24.000Z,22
2018-02-08T15:34:24.000Z,22
2018-02-08T15:35:24.000Z,22
2018-02-08T15:36:24.000Z,22
2018-02-08T15:37:24.000Z,22
2018-02-08T15:38:24.000Z,22
2018-02-08T15:39:24.000Z,22
2018-02-08T15:41:24.000Z,22
2018-02-08T15:42:24.000Z,22
2018-02-08T15:43:24.000Z,22
2018-02-08T15:44:24.000Z,22
2018-02-08T15:45:24.000Z,23
2018-02-08T15:46:24.000Z,23
2018-02-08T15:47:24.000Z,22
2018-02-08T15:48:24.000Z,23
2018-02-08T15:49:24.000Z,22
2018-02-08T15:50:24.000Z,23
2018-02-08T15:51:24.000Z,23
2018-02-08T15:52:24.000Z,22
2018-02-08T15:53:24.000Z,23
2018-02-08T15:54:24.000Z,23
2018-02-08T15:55:24.000Z,23
2018-02-08T15:56:24.000Z,23
2018-02-08T15:57:24.000Z,23
2018-02-08T15:58:24.000Z,23
2018-02-08T16:00:24.000Z,22
2018-02-08T16:01:24.000Z,23
2018-02-08T16:02:24.000Z,23
2018-02-08T16:03:24.000Z,22